sensor_id;sensor_type;location;lat;lon;timestamp;pressure;altitude;pressure_sealevel;temperature;humidity
76732;BME280;65656;51.130;13.658;2023-04-03T00:01:06;100413.19;;;0.76;77.77
76732;BME280;65656;51.130;13.658;2023-04-03T00:05:08;100410.47;;;0.68;78.51
76732;BME280;65656;51.130;13.658;2023-04-03T00:09:10;100413.81;;;0.62;79.54
76732;BME280;65656;51.130;13.658;2023-04-03T00:13:11;100436.75;;;0.66;77.38
76732;BME280;65656;51.130;13.658;2023-04-03T00:17:14;100424.59;;;0.62;77.80
76732;BME280;65656;51.130;13.658;2023-04-03T00:21:16;100424.72;;;0.52;78.73
76732;BME280;65656;51.130;13.658;2023-04-03T00:25:17;100427.63;;;0.59;76.83
76732;BME280;65656;51.130;13.658;2023-04-03T00:29:19;100429.59;;;0.48;77.62
76732;BME280;65656;51.130;13.658;2023-04-03T00:33:21;100430.22;;;0.42;78.74
76732;BME280;65656;51.130;13.658;2023-04-03T00:37:23;100445.72;;;0.40;78.20
76732;BME280;65656;51.130;13.658;2023-04-03T00:41:25;100430.19;;;0.34;79.22
76732;BME280;65656;51.130;13.658;2023-04-03T00:45:32;100438.56;;;0.31;78.08
76732;BME280;65656;51.130;13.658;2023-04-03T00:49:36;100435.53;;;0.26;79.32
76732;BME280;65656;51.130;13.658;2023-04-03T00:53:41;100435.81;;;0.23;78.52
76732;BME280;65656;51.130;13.658;2023-04-03T00:57:44;100441.38;;;0.21;77.30
76732;BME280;65656;51.130;13.658;2023-04-03T01:01:47;100448.19;;;0.08;78.28
76732;BME280;65656;51.130;13.658;2023-04-03T01:05:50;100452.53;;;0.01;78.66
76732;BME280;65656;51.130;13.658;2023-04-03T01:09:53;100439.53;;;-0.04;79.27
76732;BME280;65656;51.130;13.658;2023-04-03T01:13:57;100447.78;;;-0.06;78.60
76732;BME280;65656;51.130;13.658;2023-04-03T01:17:59;100451.25;;;-0.13;79.34
76732;BME280;65656;51.130;13.658;2023-04-03T01:22:18;100455.47;;;-0.11;78.47
76732;BME280;65656;51.130;13.658;2023-04-03T01:26:20;100467.41;;;-0.13;78.74
76732;BME280;65656;51.130;13.658;2023-04-03T01:30:26;100465.78;;;-0.24;80.06
76732;BME280;65656;51.130;13.658;2023-04-03T01:34:30;100465.03;;;-0.34;80.08
76732;BME280;65656;51.130;13.658;2023-04-03T01:38:32;100470.72;;;-0.37;80.60
76732;BME280;65656;51.130;13.658;2023-04-03T01:42:34;100479.81;;;-0.38;79.94
76732;BME280;65656;51.130;13.658;2023-04-03T01:46:35;100483.03;;;-0.52;81.03
76732;BME280;65656;51.130;13.658;2023-04-03T01:50:38;100495.09;;;-0.57;81.18
76732;BME280;65656;51.130;13.658;2023-04-03T01:54:39;100491.06;;;-0.70;81.60
76732;BME280;65656;51.130;13.658;2023-04-03T01:58:41;100499.88;;;-0.78;81.66
76732;BME280;65656;51.130;13.658;2023-04-03T02:02:42;100502.19;;;-0.83;81.85
76732;BME280;65656;51.130;13.658;2023-04-03T02:06:45;100501.41;;;-0.93;82.79
76732;BME280;65656;51.130;13.658;2023-04-03T02:10:47;100497.72;;;-0.92;82.20
76732;BME280;65656;51.130;13.658;2023-04-03T02:14:49;100500.09;;;-0.89;82.07
76732;BME280;65656;51.130;13.658;2023-04-03T02:18:50;100511.31;;;-0.94;81.43
76732;BME280;65656;51.130;13.658;2023-04-03T02:22:53;100520.75;;;-1.07;82.72
76732;BME280;65656;51.130;13.658;2023-04-03T02:26:54;100512.25;;;-1.13;83.96
76732;BME280;65656;51.130;13.658;2023-04-03T02:30:56;100525.28;;;-1.18;84.61
76732;BME280;65656;51.130;13.658;2023-04-03T02:34:58;100518.53;;;-1.22;83.99
76732;BME280;65656;51.130;13.658;2023-04-03T02:39:00;100518.81;;;-1.25;83.81
76732;BME280;65656;51.130;13.658;2023-04-03T02:43:02;100522.38;;;-1.34;84.38
76732;BME280;65656;51.130;13.658;2023-04-03T02:47:04;100526.94;;;-1.44;85.16
76732;BME280;65656;51.130;13.658;2023-04-03T02:51:05;100527.38;;;-1.49;85.69
76732;BME280;65656;51.130;13.658;2023-04-03T02:55:08;100533.47;;;-1.56;85.50
76732;BME280;65656;51.130;13.658;2023-04-03T02:59:14;100533.09;;;-1.71;86.65
76732;BME280;65656;51.130;13.658;2023-04-03T03:03:16;100534.50;;;-1.67;85.87
76732;BME280;65656;51.130;13.658;2023-04-03T03:07:17;100546.69;;;-1.92;87.21
76732;BME280;65656;51.130;13.658;2023-04-03T03:11:20;100541.44;;;-1.84;86.99
76732;BME280;65656;51.130;13.658;2023-04-03T03:15:21;100547.25;;;-1.98;87.61
76732;BME280;65656;51.130;13.658;2023-04-03T03:19:23;100551.22;;;-2.02;87.83
76732;BME280;65656;51.130;13.658;2023-04-03T03:23:26;100550.78;;;-2.07;88.13
76732;BME280;65656;51.130;13.658;2023-04-03T03:27:29;100557.41;;;-2.11;88.25
76732;BME280;65656;51.130;13.658;2023-04-03T03:31:31;100558.69;;;-2.15;88.61
76732;BME280;65656;51.130;13.658;2023-04-03T03:35:32;100557.84;;;-2.26;88.88
76732;BME280;65656;51.130;13.658;2023-04-03T03:39:34;100561.34;;;-2.35;89.64
76732;BME280;65656;51.130;13.658;2023-04-03T03:43:36;100565.16;;;-2.47;90.01
76732;BME280;65656;51.130;13.658;2023-04-03T03:47:38;100570.69;;;-2.48;90.23
76732;BME280;65656;51.130;13.658;2023-04-03T03:51:39;100572.06;;;-2.54;91.05
76732;BME280;65656;51.130;13.658;2023-04-03T03:55:41;100571.75;;;-2.61;91.24
76732;BME280;65656;51.130;13.658;2023-04-03T03:59:44;100565.25;;;-2.58;91.00
76732;BME280;65656;51.130;13.658;2023-04-03T04:03:45;100571.75;;;-2.70;91.95
76732;BME280;65656;51.130;13.658;2023-04-03T04:07:47;100569.44;;;-2.85;93.18
76732;BME280;65656;51.130;13.658;2023-04-03T04:11:48;100575.13;;;-2.68;92.45
76732;BME280;65656;51.130;13.658;2023-04-03T04:15:51;100571.47;;;-2.67;91.79
76732;BME280;65656;51.130;13.658;2023-04-03T04:19:53;100583.84;;;-2.76;92.54
76732;BME280;65656;51.130;13.658;2023-04-03T04:23:54;100583.31;;;-2.79;92.48
76732;BME280;65656;51.130;13.658;2023-04-03T04:27:56;100582.38;;;-2.90;93.35
76732;BME280;65656;51.130;13.658;2023-04-03T04:31:58;100586.19;;;-2.92;93.80
76732;BME280;65656;51.130;13.658;2023-04-03T04:36:00;100589.44;;;-2.89;93.08
76732;BME280;65656;51.130;13.658;2023-04-03T04:40:02;100595.63;;;-2.98;93.44
76732;BME280;65656;51.130;13.658;2023-04-03T04:44:03;100603.97;;;-2.91;93.21
76732;BME280;65656;51.130;13.658;2023-04-03T04:48:06;100608.31;;;-3.00;94.33
76732;BME280;65656;51.130;13.658;2023-04-03T04:52:08;100617.59;;;-3.04;94.36
76732;BME280;65656;51.130;13.658;2023-04-03T04:56:09;100613.69;;;-3.00;93.99
76732;BME280;65656;51.130;13.658;2023-04-03T05:00:12;100619.06;;;-3.00;93.84
76732;BME280;65656;51.130;13.658;2023-04-03T05:04:15;100617.22;;;-2.99;94.74
76732;BME280;65656;51.130;13.658;2023-04-03T05:08:17;100620.47;;;-2.96;94.19
76732;BME280;65656;51.130;13.658;2023-04-03T05:12:18;100624.13;;;-2.97;93.53
76732;BME280;65656;51.130;13.658;2023-04-03T05:16:20;100621.03;;;-3.02;94.21
76732;BME280;65656;51.130;13.658;2023-04-03T05:20:23;100617.06;;;-2.98;92.88
76732;BME280;65656;51.130;13.658;2023-04-03T05:24:24;100623.88;;;-2.94;93.32
76732;BME280;65656;51.130;13.658;2023-04-03T05:28:25;100635.47;;;-2.93;93.53
76732;BME280;65656;51.130;13.658;2023-04-03T05:32:27;100634.63;;;-2.94;93.72
76732;BME280;65656;51.130;13.658;2023-04-03T05:36:30;100634.97;;;-2.77;92.41
76732;BME280;65656;51.130;13.658;2023-04-03T05:40:32;100636.94;;;-2.79;92.96
76732;BME280;65656;51.130;13.658;2023-04-03T05:44:33;100636.94;;;-2.79;93.11
76732;BME280;65656;51.130;13.658;2023-04-03T05:48:35;100636.38;;;-2.73;92.63
76732;BME280;65656;51.130;13.658;2023-04-03T05:52:40;100639.50;;;-2.68;92.01
76732;BME280;65656;51.130;13.658;2023-04-03T05:56:43;100646.84;;;-2.70;92.19
76732;BME280;65656;51.130;13.658;2023-04-03T06:00:45;100654.53;;;-2.56;91.69
76732;BME280;65656;51.130;13.658;2023-04-03T06:04:47;100653.44;;;-2.44;90.75
76732;BME280;65656;51.130;13.658;2023-04-03T06:08:51;100659.41;;;-2.31;90.65
76732;BME280;65656;51.130;13.658;2023-04-03T06:12:52;100662.25;;;-2.22;90.59
76732;BME280;65656;51.130;13.658;2023-04-03T06:16:54;100664.28;;;-2.05;91.63
76732;BME280;65656;51.130;13.658;2023-04-03T06:20:55;100659.91;;;-1.87;89.16
76732;BME280;65656;51.130;13.658;2023-04-03T06:24:58;100669.69;;;-1.86;90.25
76732;BME280;65656;51.130;13.658;2023-04-03T06:29:00;100666.56;;;-1.81;89.00
76732;BME280;65656;51.130;13.658;2023-04-03T06:33:01;100667.97;;;-1.87;88.82
76732;BME280;65656;51.130;13.658;2023-04-03T06:37:03;100676.47;;;-1.82;88.36
76732;BME280;65656;51.130;13.658;2023-04-03T06:41:06;100672.66;;;-1.60;88.60
76732;BME280;65656;51.130;13.658;2023-04-03T06:45:08;100668.84;;;-1.67;88.54
76732;BME280;65656;51.130;13.658;2023-04-03T06:49:09;100675.91;;;-1.56;88.57
76732;BME280;65656;51.130;13.658;2023-04-03T06:53:11;100678.88;;;-1.50;86.71
76732;BME280;65656;51.130;13.658;2023-04-03T06:57:14;100679.03;;;-1.32;87.06
76732;BME280;65656;51.130;13.658;2023-04-03T07:01:16;100678.44;;;-1.16;85.55
76732;BME280;65656;51.130;13.658;2023-04-03T07:05:17;100685.53;;;-1.15;86.02
76732;BME280;65656;51.130;13.658;2023-04-03T07:09:19;100685.94;;;-1.20;85.15
76732;BME280;65656;51.130;13.658;2023-04-03T07:13:22;100686.31;;;-0.95;86.15
76732;BME280;65656;51.130;13.658;2023-04-03T07:17:23;100689.31;;;-1.18;84.99
76732;BME280;65656;51.130;13.658;2023-04-03T07:21:25;100706.56;;;-0.91;86.92
76732;BME280;65656;51.130;13.658;2023-04-03T07:25:26;100703.97;;;-0.73;85.21
76732;BME280;65656;51.130;13.658;2023-04-03T07:29:29;100701.81;;;-0.60;83.83
76732;BME280;65656;51.130;13.658;2023-04-03T07:33:31;100707.50;;;-0.73;83.38
76732;BME280;65656;51.130;13.658;2023-04-03T07:37:32;100709.97;;;-0.89;84.18
76732;BME280;65656;51.130;13.658;2023-04-03T07:41:34;100712.66;;;-0.89;84.99
76732;BME280;65656;51.130;13.658;2023-04-03T07:45:38;100717.47;;;-0.83;84.12
76732;BME280;65656;51.130;13.658;2023-04-03T07:49:40;100715.69;;;-0.65;85.88
76732;BME280;65656;51.130;13.658;2023-04-03T07:53:41;100721.03;;;-0.45;85.22
76732;BME280;65656;51.130;13.658;2023-04-03T07:57:43;100721.44;;;-0.40;83.70
76732;BME280;65656;51.130;13.658;2023-04-03T08:01:46;100718.63;;;-0.48;83.48
76732;BME280;65656;51.130;13.658;2023-04-03T08:05:48;100719.03;;;-0.43;81.75
76732;BME280;65656;51.130;13.658;2023-04-03T08:09:50;100730.38;;;-0.49;82.82
76732;BME280;65656;51.130;13.658;2023-04-03T08:13:52;100727.81;;;-0.41;81.86
76732;BME280;65656;51.130;13.658;2023-04-03T08:17:55;100719.88;;;-0.06;82.61
76732;BME280;65656;51.130;13.658;2023-04-03T08:21:57;100712.69;;;-0.15;81.75
76732;BME280;65656;51.130;13.658;2023-04-03T08:25:58;100713.66;;;0.12;82.27
76732;BME280;65656;51.130;13.658;2023-04-03T08:29:59;100725.47;;;0.46;78.90
76732;BME280;65656;51.130;13.658;2023-04-03T08:34:02;100735.03;;;-0.05;80.50
76732;BME280;65656;51.130;13.658;2023-04-03T08:38:04;100732.78;;;0.18;80.70
76732;BME280;65656;51.130;13.658;2023-04-03T08:42:14;100727.00;;;0.31;79.61
76732;BME280;65656;51.130;13.658;2023-04-03T08:46:19;100723.13;;;0.79;79.47
76732;BME280;65656;51.130;13.658;2023-04-03T08:50:26;100716.94;;;0.69;79.06
76732;BME280;65656;51.130;13.658;2023-04-03T08:54:33;100723.88;;;0.89;79.91
76732;BME280;65656;51.130;13.658;2023-04-03T08:58:41;100722.28;;;1.22;76.69
76732;BME280;65656;51.130;13.658;2023-04-03T09:02:46;100730.44;;;0.69;77.03
76732;BME280;65656;51.130;13.658;2023-04-03T09:06:53;100730.50;;;0.77;78.60
76732;BME280;65656;51.130;13.658;2023-04-03T09:11:04;100729.06;;;1.08;75.78
76732;BME280;65656;51.130;13.658;2023-04-03T09:15:15;100723.94;;;1.41;75.18
76732;BME280;65656;51.130;13.658;2023-04-03T09:19:35;100728.81;;;0.76;75.29
76732;BME280;65656;51.130;13.658;2023-04-03T09:23:44;100726.50;;;0.81;76.21
76732;BME280;65656;51.130;13.658;2023-04-03T09:27:47;100728.81;;;0.76;72.61
76732;BME280;65656;51.130;13.658;2023-04-03T09:31:50;100725.03;;;0.87;75.47
76732;BME280;65656;51.130;13.658;2023-04-03T09:35:51;100736.13;;;0.83;75.08
76732;BME280;65656;51.130;13.658;2023-04-03T09:39:54;100723.88;;;0.89;73.71
76732;BME280;65656;51.130;13.658;2023-04-03T09:43:56;100723.28;;;1.47;70.37
76732;BME280;65656;51.130;13.658;2023-04-03T09:48:06;100712.81;;;1.78;66.13
76732;BME280;65656;51.130;13.658;2023-04-03T09:52:19;100716.47;;;2.03;64.05
76732;BME280;65656;51.130;13.658;2023-04-03T09:56:24;100716.69;;;1.76;66.36
76732;BME280;65656;51.130;13.658;2023-04-03T10:00:28;100704.41;;;1.81;67.82
76732;BME280;65656;51.130;13.658;2023-04-03T10:04:40;100712.75;;;1.96;68.35
76732;BME280;65656;51.130;13.658;2023-04-03T10:08:41;100710.38;;;2.01;62.52
76732;BME280;65656;51.130;13.658;2023-04-03T10:12:44;100710.38;;;2.01;61.54
76732;BME280;65656;51.130;13.658;2023-04-03T10:16:52;100697.16;;;1.90;63.85
76732;BME280;65656;51.130;13.658;2023-04-03T10:21:02;100704.81;;;1.68;64.93
76732;BME280;65656;51.130;13.658;2023-04-03T10:25:15;100700.88;;;1.89;60.60
76732;BME280;65656;51.130;13.658;2023-04-03T10:29:30;100696.16;;;2.58;59.71
76732;BME280;65656;51.130;13.658;2023-04-03T10:33:41;100690.91;;;3.85;53.30
76732;BME280;65656;51.130;13.658;2023-04-03T10:37:57;100677.38;;;3.21;54.76
76732;BME280;65656;51.130;13.658;2023-04-03T10:42:03;100698.72;;;2.75;56.08
76732;BME280;65656;51.130;13.658;2023-04-03T10:46:23;100691.28;;;2.77;55.93
76732;BME280;65656;51.130;13.658;2023-04-03T10:50:39;100684.84;;;2.87;55.01
76732;BME280;65656;51.130;13.658;2023-04-03T10:54:49;100669.91;;;3.79;52.94
76732;BME280;65656;51.130;13.658;2023-04-03T10:58:58;100677.53;;;3.28;51.10
76732;BME280;65656;51.130;13.658;2023-04-03T11:03:06;100673.34;;;2.93;52.68
76732;BME280;65656;51.130;13.658;2023-04-03T11:07:15;100666.72;;;2.46;54.05
76732;BME280;65656;51.130;13.658;2023-04-03T11:11:20;100670.63;;;2.68;53.56
76732;BME280;65656;51.130;13.658;2023-04-03T11:15:24;100654.97;;;3.52;52.95
76732;BME280;65656;51.130;13.658;2023-04-03T11:19:34;100662.25;;;3.90;47.63
76732;BME280;65656;51.130;13.658;2023-04-03T11:23:37;100658.09;;;3.00;52.38
76732;BME280;65656;51.130;13.658;2023-04-03T11:27:54;100655.75;;;2.89;52.59
76732;BME280;65656;51.130;13.658;2023-04-03T11:32:07;100654.22;;;2.94;53.50
76732;BME280;65656;51.130;13.658;2023-04-03T11:36:17;100648.63;;;3.04;52.12
76732;BME280;65656;51.130;13.658;2023-04-03T11:40:26;100644.22;;;2.87;52.65
76732;BME280;65656;51.130;13.658;2023-04-03T11:44:35;100637.69;;;3.53;49.50
76732;BME280;65656;51.130;13.658;2023-04-03T11:48:51;100636.22;;;3.26;49.82
76732;BME280;65656;51.130;13.658;2023-04-03T11:53:03;100637.88;;;4.44;50.10
76732;BME280;65656;51.130;13.658;2023-04-03T11:57:45;100639.41;;;3.38;54.04
76732;BME280;65656;51.130;13.658;2023-04-03T12:01:47;100646.38;;;4.10;50.18
76732;BME280;65656;51.130;13.658;2023-04-03T12:05:50;100631.47;;;4.14;50.12
76732;BME280;65656;51.130;13.658;2023-04-03T12:09:59;100643.78;;;3.47;51.75
76732;BME280;65656;51.130;13.658;2023-04-03T12:14:03;100645.22;;;3.02;53.32
76732;BME280;65656;51.130;13.658;2023-04-03T12:23:07;100643.44;;;3.42;53.17
76732;BME280;65656;51.130;13.658;2023-04-03T12:27:36;100641.50;;;3.27;54.33
76732;BME280;65656;51.130;13.658;2023-04-03T12:31:44;100638.06;;;3.25;51.91
76732;BME280;65656;51.130;13.658;2023-04-03T12:35:57;100639.41;;;3.38;51.27
76732;BME280;65656;51.130;13.658;2023-04-03T12:40:09;100632.78;;;3.40;54.46
76732;BME280;65656;51.130;13.658;2023-04-03T12:44:33;100644.84;;;3.38;52.74
76732;BME280;65656;51.130;13.658;2023-04-03T12:48:38;100638.16;;;2.85;52.89
76732;BME280;65656;51.130;13.658;2023-04-03T12:52:51;100633.59;;;3.57;50.56
76732;BME280;65656;51.130;13.658;2023-04-03T12:57:09;100622.44;;;6.30;47.60
76732;BME280;65656;51.130;13.658;2023-04-03T13:01:14;100627.22;;;6.28;43.30
76732;BME280;65656;51.130;13.658;2023-04-03T13:05:21;100618.19;;;4.42;48.90
76732;BME280;65656;51.130;13.658;2023-04-03T13:09:25;100641.53;;;2.87;52.88
76732;BME280;65656;51.130;13.658;2023-04-03T13:13:27;100633.56;;;3.01;49.71
76732;BME280;65656;51.130;13.658;2023-04-03T13:17:31;100641.84;;;3.00;50.32
76732;BME280;65656;51.130;13.658;2023-04-03T13:21:33;100635.09;;;3.12;53.48
76732;BME280;65656;51.130;13.658;2023-04-03T13:25:41;100633.09;;;2.73;53.94
76732;BME280;65656;51.130;13.658;2023-04-03T13:29:49;100629.69;;;2.88;51.88
76732;BME280;65656;51.130;13.658;2023-04-03T13:33:59;100633.41;;;2.78;54.37
76732;BME280;65656;51.130;13.658;2023-04-03T13:38:19;100633.94;;;2.82;54.15
76732;BME280;65656;51.130;13.658;2023-04-03T13:42:25;100626.66;;;2.74;54.26
76732;BME280;65656;51.130;13.658;2023-04-03T13:46:27;100629.03;;;2.69;54.55
76732;BME280;65656;51.130;13.658;2023-04-03T13:50:30;100628.19;;;2.61;52.91
76732;BME280;65656;51.130;13.658;2023-04-03T13:54:34;100623.59;;;2.69;52.88
76732;BME280;65656;51.130;13.658;2023-04-03T13:58:36;100620.56;;;2.81;52.40
76732;BME280;65656;51.130;13.658;2023-04-03T14:02:41;100623.28;;;2.89;52.77
76732;BME280;65656;51.130;13.658;2023-04-03T14:06:44;100614.97;;;2.98;50.36
76732;BME280;65656;51.130;13.658;2023-04-03T14:10:46;100610.03;;;3.02;49.84
76732;BME280;65656;51.130;13.658;2023-04-03T14:14:48;100618.47;;;3.15;51.30
76732;BME280;65656;51.130;13.658;2023-04-03T14:18:50;100612.72;;;3.10;54.12
76732;BME280;65656;51.130;13.658;2023-04-03T14:22:54;100605.00;;;2.83;53.78
76732;BME280;65656;51.130;13.658;2023-04-03T14:26:56;100616.81;;;2.98;55.40
76732;BME280;65656;51.130;13.658;2023-04-03T14:30:58;100623.97;;;2.66;55.20
76732;BME280;65656;51.130;13.658;2023-04-03T14:35:00;100622.75;;;2.85;52.95
76732;BME280;65656;51.130;13.658;2023-04-03T14:39:04;100617.19;;;2.54;50.73
76732;BME280;65656;51.130;13.658;2023-04-03T14:43:09;100614.81;;;2.84;51.18
76732;BME280;65656;51.130;13.658;2023-04-03T14:47:12;100608.84;;;3.13;52.31
76732;BME280;65656;51.130;13.658;2023-04-03T14:51:31;100614.13;;;2.98;53.29
76732;BME280;65656;51.130;13.658;2023-04-03T14:55:34;100615.47;;;2.94;47.96
76732;BME280;65656;51.130;13.658;2023-04-03T14:59:36;100613.47;;;2.96;49.54
76732;BME280;65656;51.130;13.658;2023-04-03T15:03:37;100604.00;;;2.67;48.68
76732;BME280;65656;51.130;13.658;2023-04-03T15:07:41;100606.88;;;2.74;52.11
76732;BME280;65656;51.130;13.658;2023-04-03T15:11:44;100595.50;;;2.95;52.42
76732;BME280;65656;51.130;13.658;2023-04-03T15:15:47;100610.75;;;2.55;53.48
76732;BME280;65656;51.130;13.658;2023-04-03T15:19:49;100613.13;;;2.66;54.13
76732;BME280;65656;51.130;13.658;2023-04-03T15:23:50;100615.50;;;2.45;52.57
76732;BME280;65656;51.130;13.658;2023-04-03T15:27:54;100613.63;;;2.54;53.23
76732;BME280;65656;51.130;13.658;2023-04-03T15:31:55;100602.31;;;2.50;53.82
76732;BME280;65656;51.130;13.658;2023-04-03T15:35:57;100608.06;;;2.47;54.35
76732;BME280;65656;51.130;13.658;2023-04-03T15:40:08;100616.50;;;2.36;53.57
76732;BME280;65656;51.130;13.658;2023-04-03T15:44:11;100617.16;;;2.21;54.20
76732;BME280;65656;51.130;13.658;2023-04-03T15:48:13;100621.19;;;2.09;52.60
76732;BME280;65656;51.130;13.658;2023-04-03T15:52:14;100619.66;;;2.07;52.63
76732;BME280;65656;51.130;13.658;2023-04-03T15:56:16;100621.19;;;2.09;53.06
76732;BME280;65656;51.130;13.658;2023-04-03T16:00:19;100616.28;;;2.05;52.08
76732;BME280;65656;51.130;13.658;2023-04-03T16:04:21;100621.38;;;2.16;51.80
76732;BME280;65656;51.130;13.658;2023-04-03T16:08:23;100617.13;;;1.97;52.17
76732;BME280;65656;51.130;13.658;2023-04-03T16:12:24;100613.06;;;2.09;52.92
76732;BME280;65656;51.130;13.658;2023-04-03T16:16:27;100614.09;;;2.08;52.10
76732;BME280;65656;51.130;13.658;2023-04-03T16:20:29;100615.75;;;2.01;51.13
76732;BME280;65656;51.130;13.658;2023-04-03T16:24:31;100614.06;;;1.92;49.87
76732;BME280;65656;51.130;13.658;2023-04-03T16:28:32;100610.69;;;1.90;50.45
76732;BME280;65656;51.130;13.658;2023-04-03T16:32:36;100612.38;;;1.91;50.22
76732;BME280;65656;51.130;13.658;2023-04-03T16:36:38;100619.44;;;1.84;51.09
76732;BME280;65656;51.130;13.658;2023-04-03T16:40:39;100613.03;;;1.85;52.88
76732;BME280;65656;51.130;13.658;2023-04-03T16:44:41;100630.03;;;1.69;52.09
76732;BME280;65656;51.130;13.658;2023-04-03T16:48:44;100624.75;;;1.59;53.53
76732;BME280;65656;51.130;13.658;2023-04-03T16:52:46;100630.22;;;1.76;51.60
76732;BME280;65656;51.130;13.658;2023-04-03T16:56:47;100625.06;;;1.48;52.27
76732;BME280;65656;51.130;13.658;2023-04-03T17:00:49;100618.44;;;1.43;51.77
76732;BME280;65656;51.130;13.658;2023-04-03T17:04:52;100630.41;;;1.40;53.70
76732;BME280;65656;51.130;13.658;2023-04-03T17:08:53;100629.88;;;1.36;53.19
76732;BME280;65656;51.130;13.658;2023-04-03T17:12:55;100617.16;;;1.21;52.63
76732;BME280;65656;51.130;13.658;2023-04-03T17:16:56;100616.38;;;1.02;53.48
76732;BME280;65656;51.130;13.658;2023-04-03T17:21:00;100625.00;;;0.80;54.58
76732;BME280;65656;51.130;13.658;2023-04-03T17:25:02;100623.31;;;0.61;54.64
76732;BME280;65656;51.130;13.658;2023-04-03T17:29:04;100616.94;;;0.44;55.18
76732;BME280;65656;51.130;13.658;2023-04-03T17:33:05;100630.13;;;0.30;55.74
76732;BME280;65656;51.130;13.658;2023-04-03T17:37:08;100638.63;;;0.17;56.75
76732;BME280;65656;51.130;13.658;2023-04-03T17:41:10;100632.50;;;0.15;56.66
76732;BME280;65656;51.130;13.658;2023-04-03T17:45:12;100633.94;;;-0.09;58.88
76732;BME280;65656;51.130;13.658;2023-04-03T17:49:13;100638.25;;;-0.43;60.71
76732;BME280;65656;51.130;13.658;2023-04-03T17:53:16;100637.75;;;-0.57;63.33
76732;BME280;65656;51.130;13.658;2023-04-03T17:57:18;100640.75;;;-0.60;61.19
76732;BME280;65656;51.130;13.658;2023-04-03T18:01:25;100637.38;;;-0.62;64.87
76732;BME280;65656;51.130;13.658;2023-04-03T18:05:27;100635.84;;;-0.74;60.97
76732;BME280;65656;51.130;13.658;2023-04-03T18:09:32;100646.91;;;-0.77;64.88
76732;BME280;65656;51.130;13.658;2023-04-03T18:13:34;100635.91;;;-0.83;68.57
76732;BME280;65656;51.130;13.658;2023-04-03T18:17:35;100641.81;;;-0.80;65.64
76732;BME280;65656;51.130;13.658;2023-04-03T18:21:37;100643.50;;;-0.69;65.39
76732;BME280;65656;51.130;13.658;2023-04-03T18:25:40;100632.00;;;-0.62;64.40
76732;BME280;65656;51.130;13.658;2023-04-03T18:29:44;100645.44;;;-0.62;67.27
76732;BME280;65656;51.130;13.658;2023-04-03T18:33:46;100639.69;;;-0.49;63.24
76732;BME280;65656;51.130;13.658;2023-04-03T18:37:48;100627.09;;;-0.48;66.04
76732;BME280;65656;51.130;13.658;2023-04-03T18:41:51;100632.88;;;-0.43;70.09
76732;BME280;65656;51.130;13.658;2023-04-03T18:45:53;100629.50;;;-0.45;71.60
76732;BME280;65656;51.130;13.658;2023-04-03T18:49:55;100638.84;;;-0.49;70.38
76732;BME280;65656;51.130;13.658;2023-04-03T18:53:56;100635.16;;;-0.48;69.79
76732;BME280;65656;51.130;13.658;2023-04-03T18:57:59;100635.97;;;-0.38;68.05
76732;BME280;65656;51.130;13.658;2023-04-03T19:02:01;100629.97;;;-0.32;67.94
76732;BME280;65656;51.130;13.658;2023-04-03T19:06:04;100633.16;;;-0.19;69.99
76732;BME280;65656;51.130;13.658;2023-04-03T19:10:07;100627.03;;;-0.11;69.17
76732;BME280;65656;51.130;13.658;2023-04-03T19:14:10;100631.97;;;-0.07;66.19
76732;BME280;65656;51.130;13.658;2023-04-03T19:18:17;100628.44;;;-0.07;68.78
76732;BME280;65656;51.130;13.658;2023-04-03T19:22:18;100626.41;;;-0.05;66.10
76732;BME280;65656;51.130;13.658;2023-04-03T19:26:20;100630.56;;;0.07;61.66
76732;BME280;65656;51.130;13.658;2023-04-03T19:30:23;100633.44;;;0.06;62.53
76732;BME280;65656;51.130;13.658;2023-04-03T19:34:24;100635.13;;;0.07;60.61
76732;BME280;65656;51.130;13.658;2023-04-03T19:38:26;100632.81;;;0.12;60.53
76732;BME280;65656;51.130;13.658;2023-04-03T19:42:28;100635.91;;;0.17;60.95
76732;BME280;65656;51.130;13.658;2023-04-03T19:46:32;100636.34;;;0.30;59.09
76732;BME280;65656;51.130;13.658;2023-04-03T19:50:34;100624.81;;;0.20;60.24
76732;BME280;65656;51.130;13.658;2023-04-03T19:54:36;100627.91;;;0.25;60.33
76732;BME280;65656;51.130;13.658;2023-04-03T19:58:37;100623.72;;;0.13;61.91
76732;BME280;65656;51.130;13.658;2023-04-03T20:02:43;100621.72;;;0.15;61.13
76732;BME280;65656;51.130;13.658;2023-04-03T20:06:45;100626.03;;;0.08;62.82
76732;BME280;65656;51.130;13.658;2023-04-03T20:10:46;100623.44;;;0.16;63.90
76732;BME280;65656;51.130;13.658;2023-04-03T20:14:48;100619.44;;;0.20;63.66
76732;BME280;65656;51.130;13.658;2023-04-03T20:18:51;100614.66;;;0.14;64.72
76732;BME280;65656;51.130;13.658;2023-04-03T20:22:53;100616.41;;;0.23;65.01
76732;BME280;65656;51.130;13.658;2023-04-03T20:26:54;100620.44;;;0.19;66.32
76732;BME280;65656;51.130;13.658;2023-04-03T20:30:56;100624.44;;;0.33;66.16
76732;BME280;65656;51.130;13.658;2023-04-03T20:34:59;100618.50;;;0.29;66.62
76732;BME280;65656;51.130;13.658;2023-04-03T20:39:05;100611.25;;;0.30;67.83
76732;BME280;65656;51.130;13.658;2023-04-03T20:43:07;100612.50;;;0.35;68.20
76732;BME280;65656;51.130;13.658;2023-04-03T20:47:08;100615.25;;;0.43;68.44
76732;BME280;65656;51.130;13.658;2023-04-03T20:51:13;100605.88;;;0.47;69.52
76732;BME280;65656;51.130;13.658;2023-04-03T20:55:15;100611.31;;;0.55;69.63
76732;BME280;65656;51.130;13.658;2023-04-03T20:59:17;100609.47;;;0.56;69.79
76732;BME280;65656;51.130;13.658;2023-04-03T21:03:18;100607.63;;;0.57;70.55
76732;BME280;65656;51.130;13.658;2023-04-03T21:20:41;100601.22;;;0.58;71.81
76732;BME280;65656;51.130;13.658;2023-04-03T21:24:46;100603.22;;;0.55;71.99